Spiegelgracht — PCEO — position and weather

sailwx.info

Track history (hours):
 
Tides and Currents Weather Stations Pressure Air Temp Water Temp Dewpoint Dewpoint Depression Visibility Wind Speed Wind Dir Waves Ship Positions

Spiegelgracht

Last reported at 2017-Apr-16 22:50 UTC. Time now 2017-Apr-23 05:22 UTC.
Position N 25°10' W 079°42'.

Length 168 m; beam 25 m.

Type: Cargo ship. MMSI: 245789000.

Date/timePositionNaut miles runAvg speedWind from/ knotsBaromVisibWave heightAir tempDewpointWater temp
2017-Apr-16 22:50N 25°10' W 079°42'914.0
2017-Apr-16 22:11N 25°18' W 079°37'314.8
2017-Apr-16 22:00N 25°21' W 079°36'714.6
2017-Apr-16 21:31N 25°28' W 079°36'714.1
2017-Apr-16 21:01N 25°35' W 079°36'714.1
2017-Apr-16 20:30N 25°42' W 079°35'714.0
2017-Apr-16 20:01N 25°49' W 079°35'714.1
2017-Apr-16 19:31N 25°56' W 079°35'714.1
2017-Apr-16 19:00N 26°03' W 079°35'714.1
2017-Apr-16 18:30N 26°10' W 079°35'714.0
2017-Apr-16 18:00N 26°17' W 079°35'714.0
2017-Apr-16 17:30N 26°24' W 079°34'713.9
2017-Apr-16 17:01N 26°31' W 079°34'2513.5
2017-Apr-16 15:09N 26°56' W 079°34'62014.7
2017-Apr-14 20:48N 36°25' W 074°43'515.6
2017-Apr-14 20:30N 36°29' W 074°43'816.0
2017-Apr-14 20:00N 36°37' W 074°43'815.9
2017-Apr-14 19:30N 36°45' W 074°43'1416.0
2017-Apr-14 18:38N 36°59' W 074°43'215.9
2017-Apr-14 18:30N 37°01' W 074°43'9215.4
2017-Apr-14 12:31N 38°33' W 074°50'1 9.0
2017-Apr-14 12:28N 38°34' W 074°50'4 9.1
2017-Apr-14 12:00N 38°37' W 074°53'5 9.2
2017-Apr-14 11:27N 38°41' W 074°57'4 9.3
2017-Apr-14 11:01N 38°45' W 075°00'5 9.8
2017-Apr-14 10:31N 38°49' W 075°04'612.1
2017-Apr-14 10:00N 38°54' W 075°06'816.0
2017-Apr-14 09:30N 39°02' W 075°09'816.4
2017-Apr-14 09:00N 39°09' W 075°15'816.9
2017-Apr-14 08:30N 39°16' W 075°21'917.0
2017-Apr-14 08:00N 39°22' W 075°28'815.6
2017-Apr-14 07:30N 39°29' W 075°34'714.3
2017-Apr-14 07:00N 39°36' W 075°34'612.8
2017-Apr-14 06:30N 39°42' W 075°31'612.7
2017-Apr-14 06:00N 39°47' W 075°27'5 9.3
2017-Apr-14 05:30N 39°50' W 075°22'1 2.8
2017-Apr-14 05:00N 39°51' W 075°21'0 0.0
2017-Apr-14 04:28N 39°51' W 075°21'0 0.0
2017-Apr-14 03:58N 39°51' W 075°21'0 0.0
2017-Apr-14 03:28N 39°51' W 075°21'0 0.0
2017-Apr-14 02:58N 39°51' W 075°21'0 0.0
2017-Apr-14 02:28N 39°51' W 075°21'0 0.0
2017-Apr-14 01:58N 39°51' W 075°21'0 0.0
2017-Apr-14 01:28N 39°51' W 075°21'0 0.0
2017-Apr-14 00:58N 39°51' W 075°21'0 0.0
2017-Apr-14 00:28N 39°51' W 075°21'0 0.0
2017-Apr-13 23:58N 39°51' W 075°21'0 0.0
2017-Apr-13 23:28N 39°51' W 075°21'0 0.0
2017-Apr-13 22:55N 39°51' W 075°21'0 0.0
2017-Apr-13 22:28N 39°51' W 075°21'0 0.0
2017-Apr-13 21:58N 39°51' W 075°21'0 0.0
2017-Apr-13 21:28N 39°51' W 075°21'0 0.0
2017-Apr-13 20:58N 39°51' W 075°21'0 0.0
2017-Apr-13 20:28N 39°51' W 075°21'0 0.0
2017-Apr-13 19:58N 39°51' W 075°21'0 0.0
2017-Apr-13 19:28N 39°51' W 075°21'0 0.0
2017-Apr-13 18:58N 39°51' W 075°21'0 0.0
2017-Apr-13 18:28N 39°51' W 075°21'0 0.0
2017-Apr-13 17:58N 39°51' W 075°21'0 0.0
2017-Apr-13 17:28N 39°51' W 075°21'0 0.0
2017-Apr-13 16:58N 39°51' W 075°21'0 0.0
2017-Apr-13 16:28N 39°51' W 075°21'0 0.0
2017-Apr-13 15:58N 39°51' W 075°21'0 0.0
2017-Apr-13 15:28N 39°51' W 075°21'0 0.0
2017-Apr-13 14:58N 39°51' W 075°21'0 0.0
2017-Apr-13 13:58N 39°51' W 075°21'0 0.0
2017-Apr-13 13:28N 39°51' W 075°21'0 0.0
2017-Apr-13 12:58N 39°51' W 075°21'0 0.0
2017-Apr-13 12:28N 39°51' W 075°21'0 0.0
2017-Apr-13 11:58N 39°51' W 075°21'0 0.1
2017-Apr-13 11:28N 39°51' W 075°21'0 0.1
2017-Apr-13 10:58N 39°51' W 075°21'0 0.0
2017-Apr-13 10:28N 39°51' W 075°21'0 0.0
2017-Apr-13 09:58N 39°51' W 075°21'0 0.0
2017-Apr-13 09:28N 39°51' W 075°21'0 0.0
2017-Apr-13 08:58N 39°51' W 075°21'0 0.0
2017-Apr-13 08:28N 39°51' W 075°21'0 0.0
2017-Apr-13 07:58N 39°51' W 075°21'0 0.0
2017-Apr-13 07:28N 39°51' W 075°21'0 0.0
2017-Apr-13 06:58N 39°51' W 075°21'0 0.0
2017-Apr-13 06:28N 39°51' W 075°21'0 0.0
2017-Apr-13 05:58N 39°51' W 075°21'0 0.0
2017-Apr-13 05:28N 39°51' W 075°21'0 0.0
2017-Apr-13 04:58N 39°51' W 075°21'0 0.0
2017-Apr-13 04:28N 39°51' W 075°21'0 0.0
2017-Apr-13 03:58N 39°51' W 075°21'0 0.0
2017-Apr-13 03:28N 39°51' W 075°21'0 0.0
2017-Apr-13 02:58N 39°51' W 075°21'0 0.0
2017-Apr-13 02:28N 39°51' W 075°21'0 0.0
2017-Apr-13 01:58N 39°51' W 075°21'0 0.0
2017-Apr-13 01:28N 39°51' W 075°21'0 0.0
2017-Apr-13 00:58N 39°51' W 075°21'0 0.0
2017-Apr-13 00:31N 39°51' W 075°21'0 0.0
2017-Apr-13 00:01N 39°51' W 075°21'0 0.0
2017-Apr-12 23:31N 39°51' W 075°21'0 0.1
2017-Apr-12 23:00N 39°51' W 075°20'0 0.8
2017-Apr-12 22:30N 39°51' W 075°20'2 4.5
2017-Apr-12 22:00N 39°51' W 075°17'3 5.9
2017-Apr-12 21:30N 39°52' W 075°13'0 0.8
2017-Apr-12 20:59N 39°52' W 075°13'0 0.3
2017-Apr-12 20:29N 39°52' W 075°13'0 0.1
2017-Apr-12 19:59N 39°52' W 075°13'0 0.0
2017-Apr-12 19:29N 39°52' W 075°13'0 0.0
2017-Apr-12 18:59N 39°52' W 075°13'0 0.0
2017-Apr-12 18:29N 39°52' W 075°13'0 0.0
2017-Apr-12 17:59N 39°52' W 075°13'0 0.0
2017-Apr-12 17:29N 39°52' W 075°13'0 0.0
2017-Apr-12 16:56N 39°52' W 075°13'0 0.0
2017-Apr-12 16:29N 39°52' W 075°13'0 0.0
2017-Apr-12 15:59N 39°52' W 075°13'0 0.1
2017-Apr-12 15:29N 39°52' W 075°13'0 0.4
2017-Apr-12 14:59N 39°52' W 075°13'0 0.1
2017-Apr-12 14:29N 39°52' W 075°13'0 0.0
2017-Apr-12 13:28N 39°52' W 075°13'0 0.0
2017-Apr-12 12:58N 39°52' W 075°13'0 0.0
2017-Apr-12 12:28N 39°52' W 075°13'0 0.0
2017-Apr-12 11:58N 39°52' W 075°13'0 0.0
2017-Apr-12 11:28N 39°52' W 075°13'0 0.0
2017-Apr-12 10:58N 39°52' W 075°13'0 0.0
2017-Apr-12 10:28N 39°52' W 075°13'0 0.0
2017-Apr-12 09:58N 39°52' W 075°13'0 0.0
2017-Apr-12 09:28N 39°52' W 075°13'0 0.0
2017-Apr-12 08:58N 39°52' W 075°13'0 0.0
2017-Apr-12 08:28N 39°52' W 075°13'0 0.2
2017-Apr-12 07:58N 39°52' W 075°13'0 0.2
2017-Apr-12 07:28N 39°52' W 075°13'0 0.0
2017-Apr-12 06:58N 39°52' W 075°13'0 0.0
2017-Apr-12 06:25N 39°52' W 075°13'0 0.0
2017-Apr-12 05:58N 39°52' W 075°13'0 0.1
2017-Apr-12 05:28N 39°52' W 075°13'0 0.0
2017-Apr-12 04:58N 39°52' W 075°13'0 0.0
2017-Apr-12 04:28N 39°52' W 075°13'0 0.0
2017-Apr-12 03:58N 39°52' W 075°13'0 0.0
2017-Apr-12 03:28N 39°52' W 075°13'0 0.0
2017-Apr-12 02:58N 39°52' W 075°13'0 0.3
2017-Apr-12 02:28N 39°52' W 075°13'0 0.2
2017-Apr-12 01:58N 39°52' W 075°13'0 0.1
2017-Apr-12 01:28N 39°52' W 075°13'0 0.0
2017-Apr-12 00:58N 39°52' W 075°13'0 0.0
2017-Apr-12 00:28N 39°52' W 075°13'0 0.0
2017-Apr-11 23:58N 39°52' W 075°13'0 0.0
2017-Apr-11 23:28N 39°52' W 075°13'0 0.0
2017-Apr-11 22:58N 39°52' W 075°13'0 0.0
2017-Apr-11 22:28N 39°52' W 075°13'0 0.0
2017-Apr-11 21:58N 39°52' W 075°13'0 0.0
2017-Apr-11 21:28N 39°52' W 075°13'0 0.0
2017-Apr-11 20:58N 39°52' W 075°13'0 0.0
2017-Apr-11 20:28N 39°52' W 075°13'0 0.4
2017-Apr-11 19:58N 39°52' W 075°13'0 0.2
2017-Apr-11 19:28N 39°52' W 075°13'0 0.0
2017-Apr-11 18:58N 39°52' W 075°13'0 0.0
2017-Apr-11 18:28N 39°52' W 075°13'0 0.0
2017-Apr-11 17:58N 39°52' W 075°13'0 0.0
2017-Apr-11 17:28N 39°52' W 075°13'0 0.0
2017-Apr-11 17:00N 39°52' W 075°13'0 0.5
2017-Apr-11 16:30N 39°52' W 075°13'2 4.5
2017-Apr-11 16:00N 39°51' W 075°16'4 8.0
2017-Apr-11 15:30N 39°51' W 075°21'4 8.8
2017-Apr-11 15:00N 39°48' W 075°26'612.1
2017-Apr-11 14:30N 39°43' W 075°30'1212.4
2017-Apr-11 13:30N 39°31' W 075°33'714.3
2017-Apr-11 13:00N 39°24' W 075°30'816.0
2017-Apr-11 12:30N 39°18' W 075°23'815.7
2017-Apr-11 12:00N 39°12' W 075°17'816.0
2017-Apr-11 11:30N 39°05' W 075°11'1216.1
2017-Apr-11 10:46N 38°55' W 075°05'413.5
2017-Apr-11 10:30N 38°51' W 075°04'4 9.2
2017-Apr-11 10:00N 38°47' W 075°02'10 8.6
2017-Apr-11 08:52N 38°40' W 074°52'3 9.2
2017-Apr-11 08:30N 38°38' W 074°50'7 9.6
2017-Apr-11 07:46N 38°32' W 074°44'310.5
2017-Apr-11 07:30N 38°30' W 074°42'510.7
2017-Apr-11 07:00N 38°27' W 074°36'611.7
2017-Apr-11 06:30N 38°27' W 074°28'611.5
2017-Apr-11 06:01N 38°28' W 074°21'611.6
2017-Apr-11 05:31N 38°28' W 074°14'611.6
2017-Apr-11 05:00N 38°28' W 074°06'711.4
2017-Apr-11 04:25N 38°28' W 073°57'  
Track history (hours):
 
Tides and Currents Weather Stations Pressure Air Temp Water Temp Dewpoint Dewpoint Depression Visibility Wind Speed Wind Dir Waves Ship Positions

Spiegelgracht

Last reported at 2017-Apr-16 22:50 UTC. Time now 2017-Apr-23 05:22 UTC.
Position N 25°10' W 079°42'.

Length 168 m; beam 25 m.

Type: Cargo ship. MMSI: 245789000.

Date/timePositionNaut miles runAvg speedWind from/ knotsBaromVisibWave heightAir tempDewpointWater temp
2017-Apr-16 22:50N 25°10' W 079°42'914.0
2017-Apr-16 22:11N 25°18' W 079°37'314.8
2017-Apr-16 22:00N 25°21' W 079°36'714.6
2017-Apr-16 21:31N 25°28' W 079°36'714.1
2017-Apr-16 21:01N 25°35' W 079°36'714.1
2017-Apr-16 20:30N 25°42' W 079°35'714.0
2017-Apr-16 20:01N 25°49' W 079°35'714.1
2017-Apr-16 19:31N 25°56' W 079°35'714.1
2017-Apr-16 19:00N 26°03' W 079°35'714.1
2017-Apr-16 18:30N 26°10' W 079°35'714.0
2017-Apr-16 18:00N 26°17' W 079°35'714.0
2017-Apr-16 17:30N 26°24' W 079°34'713.9
2017-Apr-16 17:01N 26°31' W 079°34'2513.5
2017-Apr-16 15:09N 26°56' W 079°34'62014.7
2017-Apr-14 20:48N 36°25' W 074°43'515.6
2017-Apr-14 20:30N 36°29' W 074°43'816.0
2017-Apr-14 20:00N 36°37' W 074°43'815.9
2017-Apr-14 19:30N 36°45' W 074°43'1416.0
2017-Apr-14 18:38N 36°59' W 074°43'215.9
2017-Apr-14 18:30N 37°01' W 074°43'9215.4
2017-Apr-14 12:31N 38°33' W 074°50'1 9.0
2017-Apr-14 12:28N 38°34' W 074°50'4 9.1
2017-Apr-14 12:00N 38°37' W 074°53'5 9.2
2017-Apr-14 11:27N 38°41' W 074°57'4 9.3
2017-Apr-14 11:01N 38°45' W 075°00'5 9.8
2017-Apr-14 10:31N 38°49' W 075°04'612.1
2017-Apr-14 10:00N 38°54' W 075°06'816.0
2017-Apr-14 09:30N 39°02' W 075°09'816.4
2017-Apr-14 09:00N 39°09' W 075°15'816.9
2017-Apr-14 08:30N 39°16' W 075°21'917.0
2017-Apr-14 08:00N 39°22' W 075°28'815.6
2017-Apr-14 07:30N 39°29' W 075°34'714.3
2017-Apr-14 07:00N 39°36' W 075°34'612.8
2017-Apr-14 06:30N 39°42' W 075°31'612.7
2017-Apr-14 06:00N 39°47' W 075°27'5 9.3
2017-Apr-14 05:30N 39°50' W 075°22'1 2.8
2017-Apr-14 05:00N 39°51' W 075°21'0 0.0
2017-Apr-14 04:28N 39°51' W 075°21'0 0.0
2017-Apr-14 03:58N 39°51' W 075°21'0 0.0
2017-Apr-14 03:28N 39°51' W 075°21'0 0.0
2017-Apr-14 02:58N 39°51' W 075°21'0 0.0
2017-Apr-14 02:28N 39°51' W 075°21'0 0.0
2017-Apr-14 01:58N 39°51' W 075°21'0 0.0
2017-Apr-14 01:28N 39°51' W 075°21'0 0.0
2017-Apr-14 00:58N 39°51' W 075°21'0 0.0
2017-Apr-14 00:28N 39°51' W 075°21'0 0.0
2017-Apr-13 23:58N 39°51' W 075°21'0 0.0
2017-Apr-13 23:28N 39°51' W 075°21'0 0.0
2017-Apr-13 22:55N 39°51' W 075°21'0 0.0
2017-Apr-13 22:28N 39°51' W 075°21'0 0.0
2017-Apr-13 21:58N 39°51' W 075°21'0 0.0
2017-Apr-13 21:28N 39°51' W 075°21'0 0.0
2017-Apr-13 20:58N 39°51' W 075°21'0 0.0
2017-Apr-13 20:28N 39°51' W 075°21'0 0.0
2017-Apr-13 19:58N 39°51' W 075°21'0 0.0
2017-Apr-13 19:28N 39°51' W 075°21'0 0.0
2017-Apr-13 18:58N 39°51' W 075°21'0 0.0
2017-Apr-13 18:28N 39°51' W 075°21'0 0.0
2017-Apr-13 17:58N 39°51' W 075°21'0 0.0
2017-Apr-13 17:28N 39°51' W 075°21'0 0.0
2017-Apr-13 16:58N 39°51' W 075°21'0 0.0
2017-Apr-13 16:28N 39°51' W 075°21'0 0.0
2017-Apr-13 15:58N 39°51' W 075°21'0 0.0
2017-Apr-13 15:28N 39°51' W 075°21'0 0.0
2017-Apr-13 14:58N 39°51' W 075°21'0 0.0
2017-Apr-13 13:58N 39°51' W 075°21'0 0.0
2017-Apr-13 13:28N 39°51' W 075°21'0 0.0
2017-Apr-13 12:58N 39°51' W 075°21'0 0.0
2017-Apr-13 12:28N 39°51' W 075°21'0 0.0
2017-Apr-13 11:58N 39°51' W 075°21'0 0.1
2017-Apr-13 11:28N 39°51' W 075°21'0 0.1
2017-Apr-13 10:58N 39°51' W 075°21'0 0.0
2017-Apr-13 10:28N 39°51' W 075°21'0 0.0
2017-Apr-13 09:58N 39°51' W 075°21'0 0.0
2017-Apr-13 09:28N 39°51' W 075°21'0 0.0
2017-Apr-13 08:58N 39°51' W 075°21'0 0.0
2017-Apr-13 08:28N 39°51' W 075°21'0 0.0
2017-Apr-13 07:58N 39°51' W 075°21'0 0.0
2017-Apr-13 07:28N 39°51' W 075°21'0 0.0
2017-Apr-13 06:58N 39°51' W 075°21'0 0.0
2017-Apr-13 06:28N 39°51' W 075°21'0 0.0
2017-Apr-13 05:58N 39°51' W 075°21'0 0.0
2017-Apr-13 05:28N 39°51' W 075°21'0 0.0
2017-Apr-13 04:58N 39°51' W 075°21'0 0.0
2017-Apr-13 04:28N 39°51' W 075°21'0 0.0
2017-Apr-13 03:58N 39°51' W 075°21'0 0.0
2017-Apr-13 03:28N 39°51' W 075°21'0 0.0
2017-Apr-13 02:58N 39°51' W 075°21'0 0.0
2017-Apr-13 02:28N 39°51' W 075°21'0 0.0
2017-Apr-13 01:58N 39°51' W 075°21'0 0.0
2017-Apr-13 01:28N 39°51' W 075°21'0 0.0
2017-Apr-13 00:58N 39°51' W 075°21'0 0.0
2017-Apr-13 00:31N 39°51' W 075°21'0 0.0
2017-Apr-13 00:01N 39°51' W 075°21'0 0.0
2017-Apr-12 23:31N 39°51' W 075°21'0 0.1
2017-Apr-12 23:00N 39°51' W 075°20'0 0.8
2017-Apr-12 22:30N 39°51' W 075°20'2 4.5
2017-Apr-12 22:00N 39°51' W 075°17'3 5.9
2017-Apr-12 21:30N 39°52' W 075°13'0 0.8
2017-Apr-12 20:59N 39°52' W 075°13'0 0.3
2017-Apr-12 20:29N 39°52' W 075°13'0 0.1
2017-Apr-12 19:59N 39°52' W 075°13'0 0.0
2017-Apr-12 19:29N 39°52' W 075°13'0 0.0
2017-Apr-12 18:59N 39°52' W 075°13'0 0.0
2017-Apr-12 18:29N 39°52' W 075°13'0 0.0
2017-Apr-12 17:59N 39°52' W 075°13'0 0.0
2017-Apr-12 17:29N 39°52' W 075°13'0 0.0
2017-Apr-12 16:56N 39°52' W 075°13'0 0.0
2017-Apr-12 16:29N 39°52' W 075°13'0 0.0
2017-Apr-12 15:59N 39°52' W 075°13'0 0.1
2017-Apr-12 15:29N 39°52' W 075°13'0 0.4
2017-Apr-12 14:59N 39°52' W 075°13'0 0.1
2017-Apr-12 14:29N 39°52' W 075°13'0 0.0
2017-Apr-12 13:28N 39°52' W 075°13'0 0.0
2017-Apr-12 12:58N 39°52' W 075°13'0 0.0
2017-Apr-12 12:28N 39°52' W 075°13'0 0.0
2017-Apr-12 11:58N 39°52' W 075°13'0 0.0
2017-Apr-12 11:28N 39°52' W 075°13'0 0.0
2017-Apr-12 10:58N 39°52' W 075°13'0 0.0
2017-Apr-12 10:28N 39°52' W 075°13'0 0.0
2017-Apr-12 09:58N 39°52' W 075°13'0 0.0
2017-Apr-12 09:28N 39°52' W 075°13'0 0.0
2017-Apr-12 08:58N 39°52' W 075°13'0 0.0
2017-Apr-12 08:28N 39°52' W 075°13'0 0.2
2017-Apr-12 07:58N 39°52' W 075°13'0 0.2
2017-Apr-12 07:28N 39°52' W 075°13'0 0.0
2017-Apr-12 06:58N 39°52' W 075°13'0 0.0
2017-Apr-12 06:25N 39°52' W 075°13'0 0.0
2017-Apr-12 05:58N 39°52' W 075°13'0 0.1
2017-Apr-12 05:28N 39°52' W 075°13'0 0.0
2017-Apr-12 04:58N 39°52' W 075°13'0 0.0
2017-Apr-12 04:28N 39°52' W 075°13'0 0.0
2017-Apr-12 03:58N 39°52' W 075°13'0 0.0
2017-Apr-12 03:28N 39°52' W 075°13'0 0.0
2017-Apr-12 02:58N 39°52' W 075°13'0 0.3
2017-Apr-12 02:28N 39°52' W 075°13'0 0.2
2017-Apr-12 01:58N 39°52' W 075°13'0 0.1
2017-Apr-12 01:28N 39°52' W 075°13'0 0.0
2017-Apr-12 00:58N 39°52' W 075°13'0 0.0
2017-Apr-12 00:28N 39°52' W 075°13'0 0.0
2017-Apr-11 23:58N 39°52' W 075°13'0 0.0
2017-Apr-11 23:28N 39°52' W 075°13'0 0.0
2017-Apr-11 22:58N 39°52' W 075°13'0 0.0
2017-Apr-11 22:28N 39°52' W 075°13'0 0.0
2017-Apr-11 21:58N 39°52' W 075°13'0 0.0
2017-Apr-11 21:28N 39°52' W 075°13'0 0.0
2017-Apr-11 20:58N 39°52' W 075°13'0 0.0
2017-Apr-11 20:28N 39°52' W 075°13'0 0.4
2017-Apr-11 19:58N 39°52' W 075°13'0 0.2
2017-Apr-11 19:28N 39°52' W 075°13'0 0.0
2017-Apr-11 18:58N 39°52' W 075°13'0 0.0
2017-Apr-11 18:28N 39°52' W 075°13'0 0.0
2017-Apr-11 17:58N 39°52' W 075°13'0 0.0
2017-Apr-11 17:28N 39°52' W 075°13'0 0.0
2017-Apr-11 17:00N 39°52' W 075°13'0 0.5
2017-Apr-11 16:30N 39°52' W 075°13'2 4.5
2017-Apr-11 16:00N 39°51' W 075°16'4 8.0
2017-Apr-11 15:30N 39°51' W 075°21'4 8.8
2017-Apr-11 15:00N 39°48' W 075°26'612.1
2017-Apr-11 14:30N 39°43' W 075°30'1212.4
2017-Apr-11 13:30N 39°31' W 075°33'714.3
2017-Apr-11 13:00N 39°24' W 075°30'816.0
2017-Apr-11 12:30N 39°18' W 075°23'815.7
2017-Apr-11 12:00N 39°12' W 075°17'816.0
2017-Apr-11 11:30N 39°05' W 075°11'1216.1
2017-Apr-11 10:46N 38°55' W 075°05'413.5
2017-Apr-11 10:30N 38°51' W 075°04'4 9.2
2017-Apr-11 10:00N 38°47' W 075°02'10 8.6
2017-Apr-11 08:52N 38°40' W 074°52'3 9.2
2017-Apr-11 08:30N 38°38' W 074°50'7 9.6
2017-Apr-11 07:46N 38°32' W 074°44'310.5
2017-Apr-11 07:30N 38°30' W 074°42'510.7
2017-Apr-11 07:00N 38°27' W 074°36'611.7
2017-Apr-11 06:30N 38°27' W 074°28'611.5
2017-Apr-11 06:01N 38°28' W 074°21'611.6
2017-Apr-11 05:31N 38°28' W 074°14'611.6
2017-Apr-11 05:00N 38°28' W 074°06'711.4
2017-Apr-11 04:25N 38°28' W 073°57'  

Dump ship's entire track history